createdAt,value
2023-05-19T00:01:03.510Z,95572.31
2023-05-19T00:03:33.981Z,95572.50
2023-05-19T00:06:03.896Z,95562.38
2023-05-19T00:08:32.817Z,95561.22
2023-05-19T00:11:01.419Z,95562.38
2023-05-19T00:13:30.702Z,95559.03
2023-05-19T00:15:59.215Z,95559.50
2023-05-19T00:18:29.880Z,95554.72
2023-05-19T00:20:57.991Z,95557.44
2023-05-19T00:23:26.162Z,95544.06
2023-05-19T00:25:54.188Z,95549.81
2023-05-19T00:28:22.172Z,95551.56
2023-05-19T00:30:52.159Z,95547.28
2023-05-19T00:33:20.244Z,95551.56
2023-05-19T00:35:49.626Z,95552.03
2023-05-19T00:38:17.651Z,95536.50
2023-05-19T00:40:46.383Z,95533.00
2023-05-19T00:43:14.446Z,95533.00
2023-05-19T00:45:42.501Z,95538.72
2023-05-19T00:48:10.560Z,95543.16
2023-05-19T00:50:38.691Z,95536.38
2023-05-19T00:53:08.515Z,95543.66
2023-05-19T00:55:40.566Z,95537.63
2023-05-19T00:58:10.964Z,95542.41
2023-05-19T01:00:39.808Z,95540.03
2023-05-19T01:03:11.615Z,95536.09
2023-05-19T01:05:41.746Z,95537.34
2023-05-19T01:08:11.400Z,95539.09
2023-05-19T01:10:39.450Z,95550.34
2023-05-19T01:13:08.239Z,95535.00
2023-05-19T01:15:48.145Z,95545.63
2023-05-19T01:18:26.106Z,95543.72
2023-05-19T01:21:06.312Z,95509.72
2023-05-19T01:23:50.485Z,95541.31
2023-05-19T01:26:37.229Z,95532.31
2023-05-19T01:29:30.519Z,95537.06
2023-05-19T01:32:02.211Z,95547.06
2023-05-19T01:34:32.541Z,95542.44
2023-05-19T01:37:02.735Z,95539.25
2023-05-19T01:39:31.065Z,95558.63
2023-05-19T01:41:59.945Z,95536.28
2023-05-19T01:44:28.083Z,95545.50
2023-05-19T01:46:56.702Z,95547.84
2023-05-19T01:49:26.110Z,95549.41
2023-05-19T01:51:54.760Z,95554.34
2023-05-19T01:54:22.858Z,95543.09
2023-05-19T01:56:57.832Z,95545.47
2023-05-19T01:59:38.617Z,95545.16
2023-05-19T02:02:15.544Z,95548.94
2023-05-19T02:04:52.220Z,95555.44
2023-05-19T02:07:27.738Z,95553.44
2023-05-19T02:10:04.135Z,95555.66
2023-05-19T02:12:35.598Z,95556.56
2023-05-19T02:15:07.193Z,95561.78
2023-05-19T02:17:40.341Z,95557.03
2023-05-19T02:20:11.974Z,95537.59
2023-05-19T02:22:40.212Z,95558.47
2023-05-19T02:25:09.111Z,95555.44
2023-05-19T02:27:38.428Z,95549.13
2023-05-19T02:30:08.303Z,95548.03
2023-05-19T02:32:36.845Z,95549.28
2023-05-19T02:35:05.409Z,95551.19
2023-05-19T02:37:35.505Z,95562.44
2023-05-19T02:40:04.362Z,95559.28
2023-05-19T02:42:32.754Z,95563.53
2023-05-19T02:45:02.150Z,95560.06
2023-05-19T02:47:30.224Z,95570.69
2023-05-19T02:49:59.284Z,95562.16
2023-05-19T02:52:27.260Z,95549.13
2023-05-19T02:54:56.665Z,95565.63
2023-05-19T02:57:24.633Z,95549.34
2023-05-19T02:59:52.565Z,95573.84
2023-05-19T03:02:20.589Z,95571.63
2023-05-19T03:04:48.705Z,95582.91
2023-05-19T03:07:16.675Z,95580.22
2023-05-19T03:09:44.681Z,95574.03
2023-05-19T03:12:14.000Z,95582.41
2023-05-19T03:14:42.475Z,95579.41
2023-05-19T03:17:10.855Z,95583.66
2023-05-19T03:19:39.206Z,95562.66
2023-05-19T03:22:07.160Z,95584.47
2023-05-19T03:24:36.382Z,95574.16
2023-05-19T03:27:05.469Z,95587.00
2023-05-19T03:29:34.891Z,95571.28
2023-05-19T03:32:03.007Z,95588.09
2023-05-19T03:34:32.756Z,95572.72
2023-05-19T03:37:00.763Z,95573.97
2023-05-19T03:39:28.769Z,95581.88
2023-05-19T03:41:57.443Z,95570.63
2023-05-19T03:44:25.384Z,95572.50
2023-05-19T03:46:54.765Z,95575.94
2023-05-19T03:49:22.791Z,95578.31
2023-05-19T03:51:50.804Z,95583.06
2023-05-19T03:54:19.761Z,95584.91
2023-05-19T03:56:47.932Z,95586.00
2023-05-19T03:59:16.284Z,95592.63
2023-05-19T04:01:44.243Z,95591.28
2023-05-19T04:04:13.734Z,95589.94
2023-05-19T04:06:41.870Z,95594.88
2023-05-19T04:09:14.542Z,95585.97
2023-05-19T04:11:42.743Z,95596.59
2023-05-19T04:14:10.902Z,95593.72
2023-05-19T04:16:39.138Z,95592.50
2023-05-19T04:19:07.244Z,95596.59
2023-05-19T04:21:36.667Z,95588.16
2023-05-19T04:24:06.391Z,95602.38
2023-05-19T04:26:34.867Z,95597.38
2023-05-19T04:29:04.730Z,95602.69
2023-05-19T04:31:34.586Z,95602.94
2023-05-19T04:34:02.978Z,95607.78
2023-05-19T04:36:31.336Z,95609.06
2023-05-19T04:39:02.843Z,95608.16
2023-05-19T04:41:30.798Z,95598.13
2023-05-19T04:43:58.811Z,95598.13
2023-05-19T04:46:30.149Z,95600.16
2023-05-19T04:48:58.315Z,95598.94
2023-05-19T04:51:29.814Z,95606.53
2023-05-19T04:54:00.441Z,95599.31
2023-05-19T04:56:29.151Z,95597.00
2023-05-19T04:58:57.181Z,95579.50
2023-05-19T05:01:26.369Z,95594.78
2023-05-19T05:03:56.261Z,95599.78
2023-05-19T05:06:24.299Z,95600.28
2023-05-19T05:08:52.545Z,95593.09
2023-05-19T05:11:22.623Z,95604.75
2023-05-19T05:13:51.342Z,95552.31
2023-05-19T05:16:19.948Z,95608.53
2023-05-19T05:18:48.545Z,95593.09
2023-05-19T05:21:17.306Z,95596.69
2023-05-19T05:23:45.958Z,95585.41
2023-05-19T05:26:19.622Z,95584.78
2023-05-19T05:28:49.224Z,95576.09
2023-05-19T05:31:17.292Z,95577.28
2023-05-19T10:17:40.703Z,95537.41
2023-05-19T10:22:45.718Z,95553.03
2023-05-19T10:52:42.556Z,95526.34
2023-05-19T10:55:17.839Z,95526.13
2023-05-19T11:28:32.106Z,95508.38
2023-05-19T11:31:01.194Z,95515.91
2023-05-19T11:33:29.332Z,95503.53
2023-05-19T11:35:59.247Z,95506.63
2023-05-19T11:38:28.443Z,95510.44
2023-05-19T11:40:57.303Z,95498.25
2023-05-19T11:43:26.144Z,95512.19
2023-05-19T11:45:56.093Z,95518.72
2023-05-19T11:48:25.854Z,95514.22
2023-05-19T11:50:54.317Z,95522.94
2023-05-19T11:53:24.546Z,95515.88
2023-05-19T11:55:52.760Z,95510.41
2023-05-19T11:58:28.411Z,95522.13
2023-05-19T12:00:56.666Z,95582.78
2023-05-19T12:03:28.213Z,95574.84
2023-05-19T12:05:56.679Z,95604.63
2023-05-19T12:08:27.269Z,95619.38
2023-05-19T12:10:56.284Z,95583.88
2023-05-19T12:13:24.396Z,95593.69
2023-05-19T12:15:53.099Z,95581.44
2023-05-19T12:18:21.461Z,95574.97
2023-05-19T12:20:49.778Z,95601.47
2023-05-19T12:23:18.058Z,95600.97
2023-05-19T12:25:48.946Z,95609.56
2023-05-19T12:28:17.666Z,95588.41
2023-05-19T12:30:49.545Z,95530.69
2023-05-19T12:33:17.667Z,95591.22
2023-05-19T12:35:46.197Z,95576.06
2023-05-19T12:38:16.112Z,95598.19
2023-05-19T12:40:44.487Z,95577.34
2023-05-19T12:43:22.404Z,95496.09
2023-05-19T12:45:50.742Z,95564.69
2023-05-19T12:48:22.816Z,95492.38
2023-05-19T12:50:55.735Z,95580.28
2023-05-19T12:53:27.838Z,95556.06
2023-05-19T12:55:56.940Z,95535.19
2023-05-19T12:58:26.647Z,95524.78
2023-05-19T13:01:01.173Z,95525.44
2023-05-19T13:03:29.637Z,95519.13
2023-05-19T13:05:59.680Z,95520.91
2023-05-19T13:08:28.035Z,95539.22
2023-05-19T13:10:56.217Z,95520.16
2023-05-19T13:13:24.183Z,95522.47
2023-05-19T13:15:53.841Z,95520.16
2023-05-19T13:18:21.845Z,95523.59
2023-05-19T13:20:51.436Z,95518.56
2023-05-19T13:23:19.557Z,95514.84
2023-05-19T13:25:48.485Z,95508.75
2023-05-19T13:28:16.554Z,95512.75
2023-05-19T13:30:45.241Z,95510.22
2023-05-19T13:33:14.866Z,95500.97
2023-05-19T13:35:43.224Z,95506.38
2023-05-19T13:38:11.384Z,95504.47
2023-05-19T13:40:40.241Z,95490.41
2023-05-19T13:43:09.866Z,95497.38
2023-05-19T13:45:38.770Z,95468.88
2023-05-19T13:48:08.383Z,95486.50
2023-05-19T13:50:38.102Z,95499.44
2023-05-19T13:53:06.114Z,95493.94
2023-05-19T13:55:34.907Z,95503.31
2023-05-19T13:58:03.527Z,95500.22
2023-05-19T14:00:32.599Z,95499.03
2023-05-19T14:03:01.055Z,95504.13
2023-05-19T14:05:31.257Z,95475.13
2023-05-19T14:08:01.389Z,95494.72
2023-05-19T14:10:29.760Z,95495.50
2023-05-19T14:15:34.347Z,95497.47
2023-05-19T14:18:03.591Z,95493.94
2023-05-19T14:20:33.595Z,95502.56
2023-05-19T14:23:03.341Z,95501.75
2023-05-19T14:25:31.601Z,95495.50
2023-05-19T14:28:00.089Z,95504.09
2023-05-19T14:30:28.148Z,95505.69
2023-05-19T14:32:56.258Z,95500.97
2023-05-19T14:35:24.883Z,95492.75
2023-05-19T14:37:53.085Z,95504.13
2023-05-19T14:40:23.085Z,95514.31
2023-05-19T14:42:51.210Z,95509.63
2023-05-19T14:45:19.961Z,95510.41
2023-05-19T14:47:48.179Z,95501.00
2023-05-19T14:50:16.394Z,95509.63
2023-05-19T14:52:44.379Z,95519.41
2023-05-19T14:55:12.417Z,95519.78
2023-05-19T14:57:44.646Z,95519.81
2023-05-19T15:00:15.359Z,95513.53
2023-05-19T15:02:43.665Z,95413.25
2023-05-19T15:05:12.464Z,95459.06
2023-05-19T15:07:40.635Z,95520.97
2023-05-19T15:10:09.529Z,95517.41
2023-05-19T15:12:38.878Z,95515.03
2023-05-19T15:15:10.513Z,95515.41
2023-05-19T15:17:39.154Z,95522.06
2023-05-19T15:20:08.507Z,95506.81
2023-05-19T15:22:36.755Z,95522.91
2023-05-19T15:25:05.104Z,95524.09
2023-05-19T15:27:33.294Z,95522.91
2023-05-19T15:30:01.347Z,95527.63
2023-05-19T15:32:30.876Z,95516.25
2023-05-19T15:34:59.152Z,95515.84
2023-05-19T15:37:27.522Z,95509.59
2023-05-19T15:39:56.123Z,95513.13
2023-05-19T15:42:26.162Z,95522.94
2023-05-19T15:44:54.621Z,95511.94
2023-05-19T15:47:22.531Z,95528.03
2023-05-19T15:49:52.964Z,95523.72
2023-05-19T15:52:21.060Z,95529.19
2023-05-19T15:54:49.921Z,95529.19
2023-05-19T15:57:18.034Z,95526.44
2023-05-19T15:59:46.532Z,95527.63
2023-05-19T16:02:15.728Z,95520.53
2023-05-19T16:04:43.737Z,95522.50
2023-05-19T16:07:13.207Z,95522.09
2023-05-19T16:09:41.530Z,95521.28
2023-05-19T16:12:09.790Z,95521.28
2023-05-19T16:14:38.259Z,95524.06
2023-05-19T16:17:11.409Z,95522.09
2023-05-19T16:19:39.585Z,95524.44
2023-05-19T16:22:07.589Z,95524.44
2023-05-19T16:24:37.042Z,95515.78
2023-05-19T16:27:05.629Z,95518.53
2023-05-19T16:29:33.709Z,95527.94
2023-05-19T16:32:02.617Z,95523.25
2023-05-19T16:34:31.510Z,95524.00
2023-05-19T16:37:01.970Z,95521.69
2023-05-19T16:39:30.104Z,95525.63
2023-05-19T16:41:59.878Z,95534.59
2023-05-19T16:44:28.260Z,95536.56
2023-05-19T16:46:57.473Z,95540.50
2023-05-19T16:49:25.455Z,95531.84
2023-05-19T16:51:54.338Z,95533.03
2023-05-19T16:54:23.479Z,95531.47
2023-05-19T16:56:52.647Z,95531.47
2023-05-19T16:59:21.968Z,95528.31
2023-05-19T17:01:50.176Z,95525.53
2023-05-19T17:04:18.457Z,95542.72
2023-05-19T17:06:47.186Z,95527.88
2023-05-19T17:09:15.387Z,95529.00
2023-05-19T17:11:43.619Z,95531.31
2023-05-19T17:14:11.581Z,95532.88
2023-05-19T17:16:41.115Z,95532.84
2023-05-19T17:19:09.190Z,95539.88
2023-05-19T17:21:37.306Z,95540.66
2023-05-19T17:24:05.899Z,95539.88
2023-05-19T17:26:35.518Z,95544.53
2023-05-19T17:29:03.523Z,95520.16
2023-05-19T17:31:31.786Z,95549.16
2023-05-19T17:34:01.555Z,95536.59
2023-05-19T17:36:30.058Z,95536.97
2023-05-19T17:38:58.225Z,95542.00
2023-05-19T17:41:26.633Z,95539.56
2023-05-19T17:43:55.050Z,95552.53
2023-05-19T17:46:23.146Z,95557.56
2023-05-19T17:48:51.351Z,95554.78
2023-05-19T17:51:21.647Z,95554.38
2023-05-19T17:53:50.479Z,95559.00
2023-05-19T17:56:20.309Z,95564.41
2023-05-19T17:58:49.470Z,95566.75
2023-05-19T18:01:18.456Z,95564.75
2023-05-19T18:03:49.822Z,95563.94
2023-05-19T18:06:21.377Z,95584.19
2023-05-19T18:08:52.124Z,95578.66
2023-05-19T18:11:21.735Z,95580.59
2023-05-19T18:13:49.875Z,95580.50
2023-05-19T18:16:18.012Z,95580.44
2023-05-19T18:18:50.399Z,95580.34
2023-05-19T18:21:18.981Z,95584.19
2023-05-19T18:23:48.084Z,95591.16
2023-05-19T18:26:17.972Z,95593.34
2023-05-19T18:28:46.176Z,95601.03
2023-05-19T18:31:19.534Z,95604.03
2023-05-19T18:33:48.346Z,95550.41
2023-05-19T18:36:16.738Z,95597.50
2023-05-19T18:38:47.011Z,95614.69
2023-05-19T18:41:16.240Z,95617.00
2023-05-19T18:43:47.664Z,95610.63
2023-05-19T18:46:16.289Z,95630.16
2023-05-19T18:48:46.517Z,95626.16
2023-05-19T18:51:16.092Z,95614.31
2023-05-19T18:53:44.336Z,95629.97
2023-05-19T18:56:12.703Z,95635.72
2023-05-19T18:58:40.703Z,95643.41
2023-05-19T19:01:10.078Z,95643.69
2023-05-19T19:03:38.101Z,95638.84
2023-05-19T19:06:06.052Z,95642.94
2023-05-19T19:08:34.267Z,95650.00
2023-05-19T19:11:02.433Z,95657.09
2023-05-19T19:13:30.513Z,95629.66
2023-05-19T19:15:58.550Z,95653.00
2023-05-19T19:18:30.344Z,95657.94
2023-05-19T19:20:59.727Z,95655.78
2023-05-19T19:23:27.719Z,95664.81
2023-05-19T19:25:57.547Z,95659.31
2023-05-19T19:28:26.202Z,95664.66
2023-05-19T19:30:54.650Z,95656.16
2023-05-19T19:33:22.783Z,95670.63
2023-05-19T19:35:54.782Z,95678.06
2023-05-19T19:38:25.029Z,95670.91
2023-05-19T19:40:53.291Z,95678.44
2023-05-19T19:43:21.303Z,95641.09
2023-05-19T19:45:50.219Z,95678.97
2023-05-19T19:48:18.261Z,95675.66
2023-05-19T19:50:46.361Z,95680.94
2023-05-19T19:53:15.962Z,95684.81
2023-05-19T19:55:44.013Z,95678.72
2023-05-19T19:58:11.988Z,95685.75
2023-05-19T20:00:39.972Z,95688.72
2023-05-19T20:03:10.745Z,95710.84
2023-05-19T20:05:39.570Z,95689.78
2023-05-19T20:08:07.865Z,95684.97
2023-05-19T20:10:37.261Z,95688.13
2023-05-19T20:13:05.208Z,95692.69
2023-05-19T20:15:33.397Z,95698.47
2023-05-19T20:18:01.477Z,95697.66
2023-05-19T20:20:29.662Z,95664.91
2023-05-19T20:22:57.620Z,95698.81
2023-05-19T20:25:26.644Z,95702.66
2023-05-19T20:27:56.451Z,95687.59
2023-05-19T20:30:24.518Z,95650.41
2023-05-19T20:32:52.554Z,95686.53
2023-05-19T20:35:20.819Z,95688.81
2023-05-19T20:37:49.494Z,95710.09
2023-05-19T20:40:18.711Z,95701.75
2023-05-19T20:42:46.758Z,95656.69
2023-05-19T20:45:16.712Z,95693.53
2023-05-19T20:47:45.045Z,95691.31
2023-05-19T20:50:12.974Z,95692.38
2023-05-19T20:52:41.281Z,95682.88
2023-05-19T20:55:09.700Z,95676.31
2023-05-19T20:57:37.624Z,95680.97
2023-05-19T21:00:06.267Z,95684.91
2023-05-19T21:02:35.907Z,95683.31
2023-05-19T21:05:04.776Z,95675.13
2023-05-19T21:07:34.044Z,95682.88
2023-05-19T21:10:02.088Z,95690.88
2023-05-19T21:12:34.070Z,95682.13
2023-05-19T21:15:03.791Z,95682.13
2023-05-19T21:17:31.915Z,95685.53
2023-05-19T21:20:02.025Z,95678.97
2023-05-19T21:22:30.040Z,95676.69
2023-05-19T21:24:58.422Z,95678.25
2023-05-19T21:27:27.001Z,95678.25
2023-05-19T21:29:55.502Z,95672.75
2023-05-19T21:32:23.536Z,95628.94
2023-05-19T21:34:51.502Z,95677.00
2023-05-19T21:37:21.742Z,95660.09
2023-05-19T21:39:49.936Z,95676.38
2023-05-19T21:42:17.964Z,95689.41
2023-05-19T21:44:46.187Z,95675.75
2023-05-19T21:47:14.161Z,95680.72
2023-05-19T21:49:42.305Z,95648.88
2023-05-19T21:52:11.016Z,95639.19
2023-05-19T21:54:40.339Z,95672.38
2023-05-19T21:57:08.391Z,95683.47
2023-05-19T21:59:36.706Z,95679.84
2023-05-19T22:02:04.817Z,95672.72
2023-05-19T22:04:32.861Z,95677.72
2023-05-19T22:07:01.139Z,95683.75
2023-05-19T22:09:29.261Z,95673.56
2023-05-19T22:11:58.954Z,95662.28
2023-05-19T22:14:28.232Z,95670.63
2023-05-19T22:16:56.500Z,95670.41
2023-05-19T22:19:24.654Z,95660.91
2023-05-19T22:22:01.732Z,95663.53
2023-05-19T22:24:34.238Z,95665.13
2023-05-19T22:27:04.482Z,95655.75
2023-05-19T22:29:32.988Z,95664.66
2023-05-19T22:32:01.567Z,95663.44
2023-05-19T22:34:29.697Z,95662.53
2023-05-19T22:36:58.059Z,95667.31
2023-05-19T22:39:26.223Z,95664.47
2023-05-19T22:41:54.286Z,95664.59
2023-05-19T22:44:23.548Z,95664.94
2023-05-19T22:46:53.443Z,95675.00
2023-05-19T22:49:22.955Z,95673.09
2023-05-19T22:51:51.279Z,95665.06
2023-05-19T22:54:19.488Z,95680.75
2023-05-19T22:56:49.044Z,95688.56
2023-05-19T22:59:18.008Z,95679.53
2023-05-19T23:01:47.570Z,95672.09
2023-05-19T23:04:15.745Z,95671.66
2023-05-19T23:06:43.793Z,95664.31
2023-05-19T23:09:11.919Z,95662.59
2023-05-19T23:11:39.945Z,95666.69
2023-05-19T23:14:07.973Z,95657.88
2023-05-19T23:16:35.980Z,95652.03
2023-05-19T23:19:05.399Z,95650.88
2023-05-19T23:21:33.709Z,95650.56
2023-05-19T23:24:01.592Z,95651.06
2023-05-19T23:26:29.685Z,95645.53
2023-05-19T23:28:57.615Z,95643.50
2023-05-19T23:31:25.780Z,95644.28
2023-05-19T23:33:53.748Z,95645.97
2023-05-19T23:36:23.214Z,95633.69
2023-05-19T23:38:53.518Z,95635.28
2023-05-19T23:41:21.695Z,95629.41
2023-05-19T23:43:49.706Z,95627.38
2023-05-19T23:46:17.768Z,95626.47
2023-05-19T23:48:45.791Z,95626.13
2023-05-19T23:51:13.728Z,95625.22
2023-05-19T23:53:43.032Z,95635.50
2023-05-19T23:56:11.951Z,95628.72
2023-05-19T23:58:39.882Z,95623.28
